Time;durP1;ratioP1;P1;durP2;ratioP2;P2;SDS_P1;SDS_P2;PMS_P1;PMS_P2;Temp;Humidity;BMP_temperature;BMP_pressure;BME280_temperature;BME280_humidity;BME280_pressure;Samples;Min_cycle;Max_cycle;Signal;HPM_P1;HPM_P2
2022/08/05 00:01:20;;;;;;;5.87;5.37;;;28.30;57.20;;;;;;5096958;28;20457;-63
2022/08/05 00:03:47;;;;;;;5.83;5.33;;;28.20;57.20;;;;;;5097192;28;20780;-59
2022/08/05 00:06:14;;;;;;;5.40;5.00;;;28.10;57.60;;;;;;5097390;28;20887;-59
2022/08/05 00:08:41;;;;;;;6.30;5.70;;;28.10;57.90;;;;;;5097075;28;20472;-60
2022/08/05 00:11:10;;;;;;;5.67;5.20;;;28.00;58.00;;;;;;5097000;28;20468;-60
2022/08/05 00:13:40;;;;;;;6.20;5.60;;;27.90;58.20;;;;;;5097129;28;20453;-60
2022/08/05 00:16:09;;;;;;;5.60;5.10;;;27.80;58.30;;;;;;5097208;28;20760;-58
2022/08/05 00:18:35;;;;;;;6.10;5.60;;;27.70;58.50;;;;;;5097130;28;20800;-55
2022/08/05 00:21:02;;;;;;;6.73;6.03;;;27.60;58.90;;;;;;5096526;28;20441;-59
2022/08/05 00:23:29;;;;;;;5.73;5.23;;;27.50;59.00;;;;;;5096540;28;20489;-60
2022/08/05 00:25:56;;;;;;;7.20;5.47;;;27.50;59.40;;;;;;5096754;28;20468;-57
2022/08/05 00:28:23;;;;;;;5.37;4.90;;;27.40;59.70;;;;;;5096612;28;20449;-54
2022/08/05 00:30:51;;;;;;;5.60;5.20;;;27.30;59.90;;;;;;5096599;28;20483;-55
2022/08/05 00:33:17;;;;;;;6.43;5.87;;;27.30;60.20;;;;;;5096749;28;20445;-58
2022/08/05 00:35:44;;;;;;;6.03;5.53;;;27.20;60.50;;;;;;5096589;28;20452;-60
2022/08/05 00:38:11;;;;;;;5.77;5.27;;;27.20;60.40;;;;;;5096768;28;20867;-60
2022/08/05 00:40:47;;;;;;;6.60;6.00;;;27.20;60.80;;;;;;5096472;28;20468;-58
2022/08/05 00:43:14;;;;;;;8.77;6.40;;;27.10;61.70;;;;;;5096277;28;20480;-60
2022/08/05 00:45:42;;;;;;;6.60;6.00;;;27.00;61.40;;;;;;5096523;28;20476;-56
2022/08/05 00:48:11;;;;;;;9.30;5.57;;;27.00;61.60;;;;;;5096314;28;20506;-56
2022/08/05 00:50:39;;;;;;;6.67;6.00;;;27.00;61.80;;;;;;5096328;28;20764;-58
2022/08/05 00:53:06;;;;;;;6.40;5.73;;;26.90;61.90;;;;;;5096792;28;20445;-60
2022/08/05 00:55:33;;;;;;;7.23;6.53;;;26.90;61.60;;;;;;5096121;28;20451;-57
2022/08/05 00:58:00;;;;;;;6.97;6.30;;;26.90;62.00;;;;;;5096019;28;20441;-60
2022/08/05 01:00:27;;;;;;;5.27;4.50;;;26.80;62.30;;;;;;5096229;28;20449;-60
2022/08/05 01:02:55;;;;;;;9.43;5.73;;;26.80;62.70;;;;;;5095802;28;20512;-58
2022/08/05 01:05:23;;;;;;;6.70;6.10;;;26.80;62.90;;;;;;5096379;28;20457;-59
2022/08/05 01:07:50;;;;;;;6.80;6.10;;;26.70;63.10;;;;;;5096147;28;20449;-60
2022/08/05 01:10:21;;;;;;;6.47;5.90;;;26.60;62.90;;;;;;5095568;28;20445;-59
2022/08/05 01:12:55;;;;;;;6.27;5.17;;;26.60;62.60;;;;;;5095640;28;20453;-61
2022/08/05 01:15:29;;;;;;;5.97;5.47;;;26.60;63.40;;;;;;5095878;28;20897;-57
2022/08/05 01:18:01;;;;;;;5.67;5.17;;;26.50;62.70;;;;;;5096024;28;20433;-60
2022/08/05 01:20:40;;;;;;;7.43;5.17;;;26.50;62.80;;;;;;5095798;28;20426;-58
2022/08/05 01:23:16;;;;;;;6.00;5.50;;;26.40;62.90;;;;;;5095631;28;20531;-59
2022/08/05 01:26:00;;;;;;;8.27;5.90;;;26.40;63.30;;;;;;5095436;28;20433;-56
2022/08/05 01:28:35;;;;;;;6.83;5.50;;;26.30;63.50;;;;;;5095679;28;20456;-59
2022/08/05 01:31:10;;;;;;;6.47;5.97;;;26.30;64.00;;;;;;5094714;28;20449;-61
2022/08/05 01:33:43;;;;;;;8.57;5.80;;;26.30;64.10;;;;;;5095661;28;20440;-58
2022/08/05 01:36:15;;;;;;;5.30;4.80;;;26.20;64.20;;;;;;5095556;28;20477;-59
2022/08/05 01:38:43;;;;;;;6.23;5.73;;;26.10;64.40;;;;;;5095607;28;20448;-53
2022/08/05 01:41:13;;;;;;;9.90;5.63;;;26.10;64.60;;;;;;5095484;28;20475;-59
2022/08/05 01:43:42;;;;;;;6.00;5.53;;;26.00;65.20;;;;;;5095317;28;20484;-55
2022/08/05 01:46:09;;;;;;;6.50;5.87;;;25.90;65.60;;;;;;5094939;28;20452;-59
2022/08/05 01:48:38;;;;;;;6.00;5.40;;;25.90;65.60;;;;;;5095341;28;20470;-59
2022/08/05 01:51:06;;;;;;;7.27;6.30;;;25.80;66.40;;;;;;5094904;28;20454;-60
2022/08/05 01:53:35;;;;;;;6.17;5.57;;;25.80;67.30;;;;;;5095083;28;20452;-60
2022/08/05 01:56:03;;;;;;;6.90;6.20;;;25.70;67.90;;;;;;5095037;28;20484;-60
2022/08/05 01:58:31;;;;;;;6.17;5.67;;;25.70;68.40;;;;;;5095222;28;20437;-60
2022/08/05 02:01:02;;;;;;;6.60;6.00;;;25.70;69.10;;;;;;5094822;28;20445;-57
2022/08/05 02:03:32;;;;;;;7.77;6.80;;;25.70;70.00;;;;;;5094964;28;20771;-57
2022/08/05 02:06:01;;;;;;;8.37;6.57;;;25.60;70.60;;;;;;5094818;28;20453;-59
2022/08/05 02:08:28;;;;;;;9.07;6.37;;;25.60;71.20;;;;;;5094918;28;20481;-53
2022/08/05 02:11:02;;;;;;;7.77;5.77;;;25.60;71.60;;;;;;5094449;28;20442;-60
2022/08/05 02:13:35;;;;;;;7.43;6.43;;;25.60;72.10;;;;;;5094953;28;20456;-59
2022/08/05 02:16:06;;;;;;;7.27;6.57;;;25.50;72.60;;;;;;5094815;28;20466;-60
2022/08/05 02:18:39;;;;;;;8.23;6.37;;;25.50;73.20;;;;;;5094652;28;20445;-57
2022/08/05 02:21:12;;;;;;;6.93;6.33;;;25.50;73.90;;;;;;5094071;28;20548;-57
2022/08/05 02:23:41;;;;;;;7.43;6.60;;;25.50;74.60;;;;;;5094456;28;20497;-60
2022/08/05 02:26:11;;;;;;;7.13;6.30;;;25.50;75.40;;;;;;5094522;28;20445;-59
2022/08/05 02:28:42;;;;;;;7.40;5.40;;;25.50;76.00;;;;;;5094649;28;20469;-59
2022/08/05 02:31:21;;;;;;;6.50;6.00;;;25.50;77.00;;;;;;5095619;28;20454;-49
2022/08/05 02:33:51;;;;;;;7.90;5.80;;;25.50;77.90;;;;;;5095710;28;20432;-58
2022/08/05 02:36:22;;;;;;;6.30;5.80;;;25.40;79.20;;;;;;5095399;28;20471;-60
2022/08/05 02:38:50;;;;;;;7.73;6.13;;;25.40;80.60;;;;;;5095522;28;20433;-54
2022/08/05 02:41:19;;;;;;;6.50;5.87;;;25.40;82.00;;;;;;5095313;28;20473;-53
2022/08/05 02:43:48;;;;;;;6.67;5.77;;;25.30;83.30;;;;;;5095479;28;20477;-53
2022/08/05 02:46:17;;;;;;;7.20;6.20;;;25.40;85.20;;;;;;5095502;28;20445;-55
2022/08/05 02:48:45;;;;;;;5.10;4.30;;;25.30;86.70;;;;;;5095624;28;20461;-52
2022/08/05 02:51:13;;;;;;;5.63;5.10;;;25.30;88.80;;;;;;5095589;28;20456;-57
2022/08/05 02:53:41;;;;;;;5.97;5.30;;;25.30;90.30;;;;;;5095188;28;20483;-48
2022/08/05 02:56:13;;;;;;;6.87;6.20;;;25.30;91.10;;;;;;5094368;28;20514;-50
2022/08/05 02:58:41;;;;;;;5.80;5.30;;;25.20;92.00;;;;;;5095040;28;20440;-55
2022/08/05 03:01:11;;;;;;;7.73;6.13;;;25.30;93.00;;;;;;5094886;28;20461;-52
2022/08/05 03:03:42;;;;;;;6.57;5.53;;;25.20;94.00;;;;;;5094736;28;20572;-53
2022/08/05 03:06:11;;;;;;;7.67;5.70;;;25.10;95.00;;;;;;5094827;28;20548;-55
2022/08/05 03:08:39;;;;;;;7.20;5.57;;;25.10;96.20;;;;;;5095035;28;20441;-55
2022/08/05 03:11:17;;;;;;;5.10;4.70;;;25.00;97.30;;;;;;5094586;28;20541;-46
2022/08/05 03:13:45;;;;;;;7.03;5.60;;;25.10;98.60;;;;;;5094764;28;20471;-53
2022/08/05 03:16:12;;;;;;;9.63;5.83;;;25.00;99.60;;;;;;5094763;28;20472;-55
2022/08/05 03:18:40;;;;;;;8.23;5.00;;;25.00;99.90;;;;;;5094698;28;20476;-51
2022/08/05 03:21:07;;;;;;;6.33;5.43;;;25.00;99.90;;;;;;5094569;28;20437;-46
2022/08/05 03:23:35;;;;;;;9.63;5.07;;;25.00;99.90;;;;;;5094409;28;20451;-48
2022/08/05 03:26:02;;;;;;;7.70;5.47;;;24.90;99.90;;;;;;5094565;28;20526;-51
2022/08/05 03:28:30;;;;;;;6.93;4.47;;;25.00;99.90;;;;;;5094706;28;20538;-55
2022/08/05 03:30:58;;;;;;;5.30;4.90;;;25.00;99.90;;;;;;5094517;28;20445;-48
2022/08/05 03:33:26;;;;;;;6.47;5.33;;;25.00;99.90;;;;;;5095571;28;20477;-56
2022/08/05 03:35:56;;;;;;;6.97;4.90;;;25.00;99.90;;;;;;5098679;28;20547;-55
2022/08/05 03:38:24;;;;;;;7.50;5.60;;;25.00;99.90;;;;;;5098724;28;20435;-54
2022/08/05 03:40:52;;;;;;;4.90;4.40;;;25.00;99.90;;;;;;5098416;28;20430;-51
2022/08/05 03:43:20;;;;;;;7.93;5.47;;;25.00;99.90;;;;;;5098093;28;20769;-54
2022/08/05 03:45:47;;;;;;;5.93;5.33;;;25.10;99.90;;;;;;5097722;28;20481;-50
2022/08/05 03:48:14;;;;;;;8.03;4.70;;;25.00;99.90;;;;;;5098052;28;20536;-53
2022/08/05 03:50:44;;;;;;;5.50;5.00;;;25.00;99.90;;;;;;5098295;28;20468;-54
2022/08/05 03:53:15;;;;;;;7.27;4.67;;;25.10;99.90;;;;;;5098427;28;20556;-50
2022/08/05 03:55:49;;;;;;;7.60;5.60;;;25.00;99.90;;;;;;5098885;28;20471;-56
2022/08/05 03:58:18;;;;;;;6.97;5.07;;;25.00;99.90;;;;;;5098001;28;20439;-55
2022/08/05 04:00:46;;;;;;;6.23;5.63;;;25.00;99.90;;;;;;5098129;28;20447;-53
2022/08/05 04:03:15;;;;;;;5.50;5.00;;;25.00;99.90;;;;;;5097664;28;20480;-55
2022/08/05 04:05:44;;;;;;;5.70;5.30;;;25.00;99.90;;;;;;5097788;28;20524;-52
2022/08/05 04:08:13;;;;;;;8.03;5.23;;;25.00;99.90;;;;;;5097865;28;20453;-55
2022/08/05 04:10:44;;;;;;;10.40;6.33;;;25.00;99.90;;;;;;5097575;28;20441;-53
2022/08/05 04:13:17;;;;;;;7.17;5.60;;;25.00;99.90;;;;;;5097738;28;20473;-50
2022/08/05 04:15:46;;;;;;;6.03;4.63;;;25.00;99.90;;;;;;5097297;28;20434;-49
2022/08/05 04:18:13;;;;;;;5.30;4.80;;;25.00;99.90;;;;;;5097567;28;20556;-47
2022/08/05 04:20:40;;;;;;;11.70;4.67;;;25.10;99.90;;;;;;5097427;28;20457;-53
2022/08/05 04:23:07;;;;;;;4.90;4.40;;;25.10;99.90;;;;;;5097581;28;20533;-49
2022/08/05 04:25:36;;;;;;;6.17;5.57;;;25.10;99.90;;;;;;5097291;28;20576;-48
2022/08/05 04:28:03;;;;;;;5.43;4.90;;;25.10;99.90;;;;;;5096898;28;20441;-55
2022/08/05 04:30:30;;;;;;;5.87;5.37;;;25.10;99.90;;;;;;5097338;28;20458;-56
2022/08/05 04:32:56;;;;;;;10.60;6.10;;;25.20;99.90;;;;;;5097210;28;20429;-53
2022/08/05 04:35:28;;;;;;;5.53;5.03;;;25.20;99.90;;;;;;5097327;28;20792;-56
2022/08/05 04:37:56;;;;;;;8.90;4.90;;;25.20;99.90;;;;;;5097168;28;20481;-54
2022/08/05 04:40:30;;;;;;;11.37;5.40;;;25.30;99.90;;;;;;5097452;28;20460;-59
2022/08/05 04:42:58;;;;;;;5.20;4.70;;;25.30;99.90;;;;;;5097124;28;20742;-54
2022/08/05 04:45:25;;;;;;;5.23;4.73;;;25.30;99.90;;;;;;5096609;28;21202;-59
2022/08/05 04:47:52;;;;;;;5.83;5.23;;;25.40;99.90;;;;;;5097083;28;20453;-50
2022/08/05 04:50:19;;;;;;;7.87;5.00;;;25.40;99.90;;;;;;5096356;28;20956;-55
2022/08/05 04:52:46;;;;;;;5.53;4.90;;;25.40;99.90;;;;;;5096877;28;20524;-53
2022/08/05 04:55:13;;;;;;;10.60;9.07;;;25.40;99.90;;;;;;5096661;28;20596;-55
2022/08/05 04:57:40;;;;;;;7.97;6.80;;;25.50;99.90;;;;;;5096903;28;20469;-54
2022/08/05 05:00:10;;;;;;;5.73;5.20;;;25.50;99.90;;;;;;5096583;28;21008;-55
2022/08/05 05:02:37;;;;;;;5.70;4.77;;;25.50;99.90;;;;;;5096816;28;20438;-55
2022/08/05 05:05:05;;;;;;;6.00;5.40;;;25.50;99.90;;;;;;5096747;28;20476;-51
2022/08/05 05:07:32;;;;;;;7.43;5.87;;;25.50;99.90;;;;;;5097236;28;20550;-56
2022/08/05 05:10:02;;;;;;;6.57;4.90;;;25.60;99.90;;;;;;5096671;28;20941;-54
2022/08/05 05:12:29;;;;;;;8.03;5.17;;;25.60;99.90;;;;;;5096958;28;20444;-55
2022/08/05 05:14:56;;;;;;;5.60;5.13;;;25.60;99.90;;;;;;5097006;28;20448;-53
2022/08/05 05:17:24;;;;;;;5.50;5.10;;;25.60;99.90;;;;;;5095371;28;20450;-59
2022/08/05 05:19:54;;;;;;;6.60;5.60;;;25.70;99.90;;;;;;5096047;28;20453;-50
2022/08/05 05:22:21;;;;;;;7.90;4.23;;;25.70;99.90;;;;;;5095909;28;20503;-54
2022/08/05 05:24:47;;;;;;;8.17;5.33;;;25.70;99.90;;;;;;5095966;28;20464;-54
2022/08/05 05:27:17;;;;;;;5.60;5.10;;;25.70;99.90;;;;;;5096001;28;20458;-55
2022/08/05 05:29:44;;;;;;;7.20;6.30;;;25.80;99.90;;;;;;5095869;28;20480;-51
2022/08/05 05:32:10;;;;;;;4.90;4.40;;;25.80;99.90;;;;;;5118870;28;20456;-35
2022/08/05 05:34:42;;;;;;;6.07;4.80;;;25.80;99.90;;;;;;5119561;28;20512;-35
2022/08/05 05:37:08;;;;;;;9.30;6.90;;;25.90;99.90;;;;;;5118047;28;20457;-52
2022/08/05 05:39:35;;;;;;;7.10;4.50;;;26.00;99.90;;;;;;5096828;28;20541;-53
2022/08/05 05:42:02;;;;;;;5.03;4.13;;;26.00;99.90;;;;;;5095918;28;20448;-56
2022/08/05 05:44:29;;;;;;;8.40;5.37;;;26.10;99.90;;;;;;5095733;28;20492;-55
2022/08/05 05:46:56;;;;;;;7.87;5.37;;;26.00;99.90;;;;;;5092960;28;20445;-55
2022/08/05 05:49:23;;;;;;;8.80;5.60;;;26.10;99.90;;;;;;5085345;28;20477;-54
2022/08/05 05:51:51;;;;;;;5.80;5.30;;;26.10;99.90;;;;;;5099951;28;20452;-54
2022/08/05 05:54:18;;;;;;;6.83;5.00;;;26.20;99.90;;;;;;5098959;28;20445;-50
2022/08/05 05:56:45;;;;;;;6.80;5.67;;;26.20;99.90;;;;;;5097143;28;20466;-54
2022/08/05 05:59:12;;;;;;;7.20;4.60;;;26.20;99.90;;;;;;5097445;28;20458;-52
2022/08/05 06:01:41;;;;;;;5.87;5.27;;;26.20;99.90;;;;;;5094693;28;20525;-53
2022/08/05 06:04:08;;;;;;;5.30;4.80;;;26.30;99.90;;;;;;5095011;28;20450;-51
2022/08/05 06:06:36;;;;;;;4.37;3.97;;;26.20;99.90;;;;;;5094934;28;20473;-46
2022/08/05 06:09:05;;;;;;;6.33;5.37;;;26.20;99.90;;;;;;5094898;28;20486;-54
2022/08/05 06:11:33;;;;;;;6.20;5.00;;;26.10;99.90;;;;;;5095042;28;20457;-59
2022/08/05 06:14:00;;;;;;;5.77;4.90;;;26.10;99.90;;;;;;5096779;28;20525;-53
2022/08/05 06:16:27;;;;;;;5.03;4.53;;;26.10;99.90;;;;;;5095611;28;20556;-55
2022/08/05 06:18:54;;;;;;;5.60;5.07;;;26.10;99.90;;;;;;5096590;28;20535;-53
2022/08/05 06:21:21;;;;;;;5.97;5.17;;;26.10;99.90;;;;;;5096360;28;20470;-54
2022/08/05 06:23:48;;;;;;;5.17;4.67;;;26.20;99.90;;;;;;5096223;28;20434;-55
2022/08/05 06:26:17;;;;;;;6.90;4.17;;;26.20;99.90;;;;;;5097300;28;20562;-54
2022/08/05 06:28:44;;;;;;;5.43;4.97;;;26.00;99.90;;;;;;5098837;28;20446;-46
2022/08/05 06:31:11;;;;;;;4.23;3.43;;;26.00;99.90;;;;;;5098150;28;20438;-59
2022/08/05 06:33:38;;;;;;;5.47;3.87;;;25.80;99.90;;;;;;5097441;28;20763;-51
2022/08/05 06:36:05;;;;;;;4.40;3.83;;;25.80;99.90;;;;;;5097411;28;20540;-50
2022/08/05 06:38:32;;;;;;;3.67;3.30;;;25.80;99.90;;;;;;5097555;28;20446;-50
2022/08/05 06:40:59;;;;;;;4.60;4.20;;;25.80;99.90;;;;;;5099262;28;20470;-48
2022/08/05 06:43:27;;;;;;;5.67;3.77;;;25.90;99.90;;;;;;5099042;28;20529;-52
2022/08/05 06:45:54;;;;;;;3.70;3.40;;;26.10;99.90;;;;;;5098470;28;20481;-54
2022/08/05 06:48:21;;;;;;;3.77;3.40;;;26.20;99.90;;;;;;5099680;28;20456;-47
2022/08/05 06:50:48;;;;;;;6.03;3.57;;;26.30;99.90;;;;;;5102051;28;20980;-49
2022/08/05 06:53:15;;;;;;;4.57;4.17;;;26.30;99.90;;;;;;5096712;28;20488;-50
2022/08/05 06:55:41;;;;;;;5.77;3.90;;;26.40;99.90;;;;;;5097199;28;20444;-50
2022/08/05 06:58:08;;;;;;;4.27;3.87;;;26.50;99.90;;;;;;5096560;28;20465;-51
2022/08/05 07:00:36;;;;;;;5.63;4.10;;;26.70;99.90;;;;;;5095182;28;20774;-51
2022/08/05 07:03:04;;;;;;;7.17;4.47;;;26.80;99.90;;;;;;5094350;28;20468;-47
2022/08/05 07:05:30;;;;;;;3.50;3.20;;;27.00;99.90;;;;;;5092687;28;20481;-46
2022/08/05 07:08:00;;;;;;;4.20;3.60;;;27.00;99.90;;;;;;5107178;28;20497;-34
2022/08/05 07:10:27;;;;;;;4.10;3.70;;;27.00;99.90;;;;;;5098191;28;20474;-52
2022/08/05 07:18:24;;;;;;;3.90;3.50;;;27.30;99.90;;;;;;5094273;28;20425;-60
2022/08/05 07:20:51;;;;;;;3.13;2.83;;;27.50;99.90;;;;;;5099101;28;20455;-58
2022/08/05 07:23:18;;;;;;;4.20;3.37;;;27.70;99.90;;;;;;5098391;28;20468;-56
2022/08/05 07:25:45;;;;;;;4.13;3.20;;;27.80;99.90;;;;;;5099216;28;20473;-58
2022/08/05 07:28:12;;;;;;;9.20;3.60;;;28.10;99.90;;;;;;5101400;28;20488;-59
2022/08/05 07:30:41;;;;;;;7.17;3.43;;;28.10;99.90;;;;;;5099116;28;20535;-59
2022/08/05 07:33:09;;;;;;;5.87;3.60;;;28.00;99.90;;;;;;5098169;28;20469;-61
2022/08/05 07:35:37;;;;;;;3.37;3.07;;;28.00;99.90;;;;;;5097454;28;20465;-59
2022/08/05 07:38:04;;;;;;;3.90;2.90;;;27.90;99.90;;;;;;5101250;28;20429;-61
2022/08/05 07:40:31;;;;;;;3.33;3.03;;;27.80;99.90;;;;;;5096239;28;20748;-58
2022/08/05 07:42:58;;;;;;;3.40;3.10;;;27.80;99.90;;;;;;5097357;28;20552;-60
2022/08/05 07:45:25;;;;;;;6.27;3.90;;;27.80;99.90;;;;;;5097816;28;20473;-59
2022/08/05 07:47:53;;;;;;;4.87;3.60;;;27.70;99.90;;;;;;5102353;28;20494;-58
2022/08/05 07:50:20;;;;;;;5.27;4.23;;;27.60;99.90;;;;;;5102506;28;20459;-58
2022/08/05 07:52:47;;;;;;;3.07;2.77;;;27.40;99.90;;;;;;5100429;28;20455;-60
2022/08/05 07:55:14;;;;;;;4.00;3.00;;;27.30;99.90;;;;;;5097708;28;20525;-58
2022/08/05 07:57:41;;;;;;;4.20;3.10;;;27.10;99.90;;;;;;5102327;28;20768;-58
2022/08/05 08:00:09;;;;;;;5.00;3.23;;;27.00;99.90;;;;;;5100373;28;20475;-59
2022/08/05 08:02:36;;;;;;;3.53;2.67;;;27.00;99.90;;;;;;5098554;28;20433;-60
2022/08/05 08:05:06;;;;;;;4.93;3.70;;;26.90;99.90;;;;;;5099258;28;20493;-55
2022/08/05 08:07:33;;;;;;;6.00;3.90;;;26.90;99.90;;;;;;5099953;28;20461;-58
2022/08/05 08:10:00;;;;;;;3.33;2.77;;;26.80;99.90;;;;;;5097359;28;20481;-59
2022/08/05 08:12:27;;;;;;;3.20;2.77;;;26.70;99.90;;;;;;5098240;28;20465;-59
2022/08/05 08:14:54;;;;;;;6.20;3.27;;;26.50;99.90;;;;;;5097725;28;20524;-58
2022/08/05 08:17:22;;;;;;;6.00;3.80;;;26.50;99.90;;;;;;5103642;28;20911;-62
2022/08/05 08:19:49;;;;;;;6.03;3.00;;;26.40;99.90;;;;;;5100820;28;20434;-56
2022/08/05 08:22:17;;;;;;;4.10;3.20;;;26.40;99.90;;;;;;5101932;28;20465;-61
2022/08/05 08:24:44;;;;;;;4.07;3.40;;;26.40;99.90;;;;;;5101731;28;20465;-59
2022/08/05 08:27:11;;;;;;;4.40;3.03;;;26.50;99.90;;;;;;5099665;28;20481;-59
2022/08/05 08:29:38;;;;;;;4.23;3.27;;;26.60;99.90;;;;;;5101506;28;20928;-59
2022/08/05 08:32:05;;;;;;;3.70;3.40;;;26.80;99.90;;;;;;5103292;28;20461;-59
2022/08/05 08:34:32;;;;;;;3.63;3.30;;;26.90;99.90;;;;;;5097033;28;20469;-59
2022/08/05 08:36:58;;;;;;;3.00;2.50;;;26.90;99.90;;;;;;5093773;28;20728;-55
2022/08/05 08:39:27;;;;;;;4.70;3.10;;;26.90;99.90;;;;;;5103248;28;20503;-59
2022/08/05 08:41:56;;;;;;;3.20;2.93;;;26.90;99.90;;;;;;5101770;28;20437;-60
2022/08/05 08:44:25;;;;;;;2.90;2.60;;;26.80;99.90;;;;;;5103917;28;20442;-58
2022/08/05 08:46:52;;;;;;;7.00;3.27;;;26.80;99.90;;;;;;5102159;28;20961;-61
2022/08/05 08:49:22;;;;;;;9.80;2.80;;;26.70;99.90;;;;;;5107903;28;20557;-63
2022/08/05 08:51:54;;;;;;;3.17;2.90;;;26.70;99.90;;;;;;5111094;28;20441;-59
2022/08/05 08:54:21;;;;;;;6.47;3.20;;;26.60;99.90;;;;;;5098500;28;20433;-60
2022/08/05 08:56:50;;;;;;;3.33;3.03;;;26.60;99.90;;;;;;5099680;28;20529;-59
2022/08/05 08:59:19;;;;;;;3.87;3.27;;;26.50;99.90;;;;;;5104198;28;20448;-59
2022/08/05 09:01:47;;;;;;;2.97;2.73;;;26.50;99.90;;;;;;5098132;28;20465;-60
2022/08/05 09:04:14;;;;;;;9.43;2.57;;;26.50;99.90;;;;;;5099900;28;20459;-58
2022/08/05 09:06:41;;;;;;;4.60;3.10;;;26.50;99.90;;;;;;5096870;28;20546;-59
2022/08/05 09:09:07;;;;;;;3.10;2.80;;;26.30;99.90;;;;;;5098697;28;20469;-59
2022/08/05 09:11:36;;;;;;;3.67;2.97;;;26.30;99.90;;;;;;5097642;28;20458;-59
2022/08/05 09:14:05;;;;;;;2.93;2.73;;;26.20;99.90;;;;;;5101958;28;20472;-59
2022/08/05 09:16:32;;;;;;;6.93;2.47;;;26.10;99.90;;;;;;5099355;28;20449;-59
2022/08/05 09:18:58;;;;;;;4.60;3.50;;;26.00;99.90;;;;;;5099347;28;20441;-58
2022/08/05 09:21:27;;;;;;;5.87;3.57;;;25.90;99.90;;;;;;5095675;28;20492;-61
2022/08/05 09:24:04;;;;;;;3.60;3.20;;;25.90;99.90;;;;;;5096132;28;20545;-58
2022/08/05 09:26:32;;;;;;;5.10;2.53;;;26.00;99.90;;;;;;5103209;28;20992;-58
2022/08/05 09:29:00;;;;;;;6.47;3.20;;;26.00;99.90;;;;;;5106357;28;20472;-58
2022/08/05 09:31:28;;;;;;;3.80;3.30;;;26.10;99.90;;;;;;5099254;28;20913;-57
2022/08/05 09:33:58;;;;;;;2.60;2.40;;;26.20;99.90;;;;;;5096675;28;20503;-59
2022/08/05 09:36:37;;;;;;;4.03;2.43;;;26.30;99.90;;;;;;5088854;28;20451;-58
2022/08/05 09:39:06;;;;;;;3.87;2.80;;;26.40;99.90;;;;;;5087146;28;20564;-57
2022/08/05 09:41:35;;;;;;;2.60;2.40;;;26.50;99.90;;;;;;5101246;28;20869;-59
2022/08/05 09:44:02;;;;;;;3.60;2.50;;;26.60;99.90;;;;;;5105611;28;20442;-58
2022/08/05 09:46:32;;;;;;;3.00;2.43;;;26.60;99.90;;;;;;5103360;28;20508;-60
2022/08/05 09:49:03;;;;;;;5.53;2.70;;;26.70;99.90;;;;;;5098817;28;20909;-59
2022/08/05 09:51:36;;;;;;;2.80;2.60;;;26.70;99.90;;;;;;5106125;28;20473;-58
2022/08/05 09:54:07;;;;;;;2.63;2.43;;;26.80;99.90;;;;;;5099029;28;20514;-60
2022/08/05 09:56:36;;;;;;;2.90;2.60;;;26.70;99.90;;;;;;5105522;28;20937;-55
2022/08/05 09:59:06;;;;;;;3.40;3.10;;;26.70;99.90;;;;;;5105500;28;20430;-59
2022/08/05 10:01:36;;;;;;;5.47;2.77;;;26.60;99.90;;;;;;5101534;28;20457;-59
2022/08/05 10:04:05;;;;;;;16.80;4.40;;;26.60;99.90;;;;;;5103285;28;20461;-60
2022/08/05 10:06:33;;;;;;;3.70;2.90;;;26.50;99.90;;;;;;5104460;28;20510;-57
2022/08/05 10:09:12;;;;;;;5.50;3.27;;;26.40;99.90;;;;;;5101559;28;20449;-60
2022/08/05 10:11:39;;;;;;;5.60;3.70;;;26.30;99.90;;;;;;5098030;28;20448;-59
2022/08/05 10:14:21;;;;;;;3.17;2.87;;;26.20;99.90;;;;;;5096032;28;20808;-56
2022/08/05 10:16:50;;;;;;;3.83;3.17;;;26.20;99.90;;;;;;5099684;28;20461;-62
2022/08/05 10:19:17;;;;;;;5.03;3.27;;;26.10;99.90;;;;;;5097029;28;20760;-56
2022/08/05 10:21:45;;;;;;;4.23;3.00;;;25.90;99.90;;;;;;5095360;28;20548;-59
2022/08/05 10:24:13;;;;;;;3.83;3.20;;;25.90;99.90;;;;;;5099451;28;20437;-56
2022/08/05 10:26:41;;;;;;;7.67;3.20;;;25.90;99.90;;;;;;5098135;28;20497;-58
2022/08/05 10:29:08;;;;;;;3.57;3.20;;;26.20;99.90;;;;;;5103067;28;20529;-57
2022/08/05 10:31:36;;;;;;;4.30;2.97;;;26.60;99.90;;;;;;5095812;28;20506;-60
2022/08/05 10:34:04;;;;;;;5.30;3.17;;;26.80;99.90;;;;;;5097830;28;20442;-60
2022/08/05 10:36:31;;;;;;;9.40;4.00;;;26.90;99.90;;;;;;5095581;28;20475;-60
2022/08/05 10:39:03;;;;;;;4.13;2.80;;;26.90;99.90;;;;;;5097344;28;20496;-59
2022/08/05 10:41:35;;;;;;;3.40;3.03;;;26.70;99.90;;;;;;5103658;28;20470;-59
2022/08/05 10:44:06;;;;;;;4.93;3.83;;;26.60;99.90;;;;;;5102420;28;20509;-59
2022/08/05 10:46:49;;;;;;;7.83;3.40;;;26.50;99.90;;;;;;5098563;28;20553;-60
2022/08/05 10:49:18;;;;;;;7.40;3.53;;;26.30;99.90;;;;;;5102030;28;20973;-59
2022/08/05 10:51:46;;;;;;;5.23;3.80;;;26.30;99.90;;;;;;5099472;28;20441;-60
2022/08/05 10:54:14;;;;;;;3.87;3.30;;;26.10;99.90;;;;;;5096808;28;20465;-59
2022/08/05 10:56:46;;;;;;;6.87;4.10;;;26.00;99.90;;;;;;5096750;28;20529;-59
2022/08/05 10:59:18;;;;;;;5.20;3.40;;;25.80;99.90;;;;;;5099237;28;20467;-61
2022/08/05 11:01:46;;;;;;;4.60;3.20;;;25.80;99.90;;;;;;5098752;28;20531;-59
2022/08/05 11:04:16;;;;;;;14.13;5.10;;;25.80;99.90;;;;;;5094807;28;20556;-58
2022/08/05 11:07:07;;;;;;;5.23;4.63;;;25.80;99.90;;;;;;5097240;28;20566;-53
2022/08/05 11:09:44;;;;;;;7.33;3.83;;;25.80;99.90;;;;;;5074293;28;20452;-58
2022/08/05 11:12:45;;;;;;;4.20;3.80;;;25.70;99.90;;;;;;5101251;28;20498;-57
2022/08/05 11:15:21;;;;;;;3.83;2.57;;;25.70;99.90;;;;;;5098402;28;20433;-59
2022/08/05 11:17:49;;;;;;;5.53;3.03;;;25.80;99.90;;;;;;5099205;28;20441;-61
2022/08/05 11:20:44;;;;;;;4.93;3.07;;;26.10;99.90;;;;;;5102809;28;20519;-64
2022/08/05 11:23:36;;;;;;;2.80;2.60;;;26.50;99.90;;;;;;5096230;28;20833;-61
2022/08/05 11:26:08;;;;;;;2.83;2.53;;;27.00;99.90;;;;;;5095914;28;20966;-61
2022/08/05 11:28:52;;;;;;;3.90;2.10;;;27.50;99.90;;;;;;5104110;28;20449;-59
2022/08/05 11:31:26;;;;;;;3.63;2.60;;;28.00;99.90;;;;;;5097649;28;20462;-61
2022/08/05 11:33:59;;;;;;;3.97;2.90;;;28.40;99.90;;;;;;5100286;28;20452;-61
2022/08/05 11:36:49;;;;;;;3.33;2.63;;;28.70;99.90;;;;;;5104270;28;20469;-53
2022/08/05 11:39:48;;;;;;;2.70;2.50;;;28.90;99.90;;;;;;5096312;28;20462;-57
2022/08/05 11:42:17;;;;;;;2.77;2.53;;;28.90;99.90;;;;;;5093842;28;20446;-60
2022/08/05 11:44:46;;;;;;;2.60;2.40;;;28.80;99.90;;;;;;5102488;28;20469;-59
2022/08/05 11:47:13;;;;;;;2.50;2.17;;;28.90;99.90;;;;;;5100534;28;20964;-60
2022/08/05 11:49:40;;;;;;;4.97;2.40;;;29.10;99.90;;;;;;5094330;28;20442;-59
2022/08/05 11:52:08;;;;;;;2.50;2.30;;;29.20;99.90;;;;;;5093740;28;20888;-60
2022/08/05 11:54:37;;;;;;;3.23;2.83;;;29.30;99.90;;;;;;5101398;28;20777;-61
2022/08/05 11:57:05;;;;;;;3.13;2.83;;;29.20;99.90;;;;;;5097895;28;20493;-59
2022/08/05 11:59:33;;;;;;;6.73;3.13;;;29.30;99.90;;;;;;5099149;28;20462;-58
2022/08/05 12:02:02;;;;;;;3.53;3.23;;;29.40;99.90;;;;;;5099959;28;20461;-58
2022/08/05 12:04:38;;;;;;;6.50;3.27;;;29.60;99.90;;;;;;5100773;28;20465;-54
2022/08/05 12:07:07;;;;;;;3.60;3.30;;;29.50;99.90;;;;;;5098484;28;20477;-59
2022/08/05 12:09:39;;;;;;;8.73;3.40;;;29.40;99.90;;;;;;5099170;28;20465;-58
2022/08/05 12:12:08;;;;;;;3.23;2.93;;;29.50;99.90;;;;;;5099181;28;20512;-57
2022/08/05 12:14:39;;;;;;;3.67;3.37;;;29.40;99.90;;;;;;5102336;28;20566;-57
2022/08/05 12:17:11;;;;;;;3.80;3.20;;;29.50;99.90;;;;;;5098319;28;20464;-57
2022/08/05 12:19:42;;;;;;;4.70;3.40;;;29.40;99.90;;;;;;5097071;28;20441;-59
2022/08/05 12:22:09;;;;;;;3.47;3.17;;;29.50;99.90;;;;;;5101576;28;20449;-53
2022/08/05 12:24:41;;;;;;;8.33;3.50;;;29.60;99.90;;;;;;5098881;28;20525;-59
2022/08/05 12:27:08;;;;;;;4.93;3.50;;;29.70;99.90;;;;;;5098824;28;20564;-56
2022/08/05 12:29:35;;;;;;;3.53;3.23;;;29.70;99.90;;;;;;5098188;28;20456;-58
2022/08/05 12:32:02;;;;;;;3.60;3.23;;;29.70;99.90;;;;;;5105694;28;20450;-60
2022/08/05 12:34:32;;;;;;;7.13;3.67;;;29.70;99.90;;;;;;5097328;28;20547;-58
2022/08/05 12:37:06;;;;;;;7.83;3.73;;;29.70;99.90;;;;;;5097040;28;20536;-60
2022/08/05 12:39:33;;;;;;;4.20;3.80;;;29.80;99.90;;;;;;5098562;28;20493;-62
2022/08/05 12:42:02;;;;;;;4.00;3.60;;;29.90;99.90;;;;;;5100083;28;20492;-59
2022/08/05 12:44:29;;;;;;;3.70;3.40;;;30.10;99.90;;;;;;5100198;28;20441;-60
2022/08/05 12:46:56;;;;;;;5.03;3.70;;;30.10;99.90;;;;;;5096671;28;20538;-60
2022/08/05 12:49:23;;;;;;;4.50;4.10;;;30.10;99.90;;;;;;5097404;28;20451;-59
2022/08/05 12:51:51;;;;;;;3.63;3.00;;;30.10;99.90;;;;;;5100893;28;20455;-58
2022/08/05 12:54:20;;;;;;;3.90;3.60;;;30.10;99.90;;;;;;5099251;28;20438;-59
2022/08/05 12:56:50;;;;;;;3.53;3.23;;;30.10;99.90;;;;;;5105575;28;20449;-60
2022/08/05 12:59:20;;;;;;;4.47;4.07;;;30.20;99.90;;;;;;5103048;28;20472;-59
2022/08/05 13:01:56;;;;;;;4.43;4.00;;;30.10;99.90;;;;;;5098786;28;20452;-58